Aérodrome :
LOGIN :

S'inscrire | Disclaimer

   EN    FR    IT 

 










Légende :    VFR   VFR Marginal   IFR   IFR Intensif   IFR Très Intensif
Visi : 
Plafond : 
>= 8 km
>= 3000ft
5 à 8 km
1000 à 3000 ft
1500m à 5 km
500 à 1000 ft
800 à 1500m
200 à 500 ft
< 800m
< 200 ft
Symboles :   Orages  Brouillard  Fortes neiges  Fortes précipitations  Vent > 20 kt
SIGMETs :   Divers  Orages  Givrage  Turbulence  Onde Orograph.  Cendres Volcan.






- Altitude de l'aérodrome : 135 ft
- Code IATA : TLV


LLBG - Ben Gurion

DERNIER METAR :
  • 040850Z 15007KT CAVOK 29/07 Q1015 NOSIG

METARs EXPIRÉS :
  • 040820Z 36008KT CAVOK 27/06 Q1016 NOSIG
  • 040750Z 01007KT CAVOK 26/05 Q1016 NOSIG
  • 040720Z 03006KT CAVOK 25/06 Q1016 NOSIG
  • 040650Z 04008KT CAVOK 25/05 Q1016 NOSIG
  • 040620Z 05004KT CAVOK 23/09 Q1017 NOSIG

TAF TAF LLBG
Valide du 04 à 06h jusqu'au 05 à 06h UTC


040501Z 0406/0506 08008KT CAVOK
BECMG 0419/0421 12015KT TX30/0411Z TN25/0503Z



MET'MAP, la Météo Aéronautique d'un coup d'oeil ! - Copyright ORBIFLY Décembre 2007 - Disclaimer

ORBIFLY MET'MAP TEAM :

Programmation & Développement : Alexandra Zaïnal
Sur une idée originale de : Baudouin d'Aumeries
Assistance à la programmation : Marc-Olivier Méhu
Soutien technique & logistique : Manuel Goepfert

Contact : metmap@orbifly.com




SOURCES & CREDITS :

   NOAA